Time;durP1;ratioP1;P1;durP2;ratioP2;P2;SDS_P1;SDS_P2;PMS_P1;PMS_P2;Temp;Humidity;BMP_temperature;BMP_pressure;BME280_temperature;BME280_humidity;BME280_pressure;Samples;Min_cycle;Max_cycle;Signal;HPM_P1;HPM_P2
2021/12/21 00:01:07;;;;;;;16.92;8.63;;;-1.10;99.90;;;;;;5105492;27;20137;-67
2021/12/21 00:03:33;;;;;;;18.65;9.32;;;-1.10;99.90;;;;;;5110374;27;20494;-67
2021/12/21 00:05:59;;;;;;;19.88;10.07;;;-0.90;99.90;;;;;;5108754;27;20039;-67
2021/12/21 00:08:24;;;;;;;17.83;8.70;;;-1.10;99.90;;;;;;5107385;27;20038;-67
2021/12/21 00:10:50;;;;;;;19.80;8.73;;;-1.10;99.90;;;;;;5124591;27;20471;-67
2021/12/21 00:16:09;;;;;;;22.65;9.20;;;-1.10;99.90;;;;;;5106055;27;20043;-67
2021/12/21 00:19:23;;;;;;;16.63;8.85;;;-1.10;99.90;;;;;;5110764;27;20066;-67
2021/12/21 00:21:52;;;;;;;16.42;8.45;;;-1.20;99.90;;;;;;5099324;27;20055;-67
2021/12/21 00:24:21;;;;;;;13.60;7.65;;;-1.10;99.90;;;;;;5100943;28;20043;-67
2021/12/21 00:26:46;;;;;;;19.95;8.52;;;-1.10;99.90;;;;;;5122957;27;20099;-66
2021/12/21 00:29:12;;;;;;;14.57;7.82;;;-1.20;99.90;;;;;;5123666;27;20971;-67
2021/12/21 00:31:39;;;;;;;21.15;9.02;;;-1.10;99.90;;;;;;5106153;27;20330;-67
2021/12/21 00:34:07;;;;;;;17.00;9.50;;;-1.20;99.90;;;;;;5107221;27;20043;-67
2021/12/21 00:36:35;;;;;;;16.65;8.20;;;-1.10;99.90;;;;;;5107754;27;20039;-66
2021/12/21 00:39:06;;;;;;;12.88;7.93;;;-1.20;99.90;;;;;;5109877;27;20054;-66
2021/12/21 00:41:33;;;;;;;16.10;7.82;;;-1.10;99.90;;;;;;5091305;27;20103;-68
2021/12/21 00:43:59;;;;;;;19.48;7.95;;;-1.20;99.90;;;;;;5127094;27;20040;-66
2021/12/21 00:46:25;;;;;;;13.82;7.90;;;-1.20;99.90;;;;;;5126229;27;20085;-66
2021/12/21 00:48:54;;;;;;;14.75;7.95;;;-0.90;99.90;;;;;;5109381;27;20130;-67
2021/12/21 00:51:25;;;;;;;13.00;7.97;;;-1.20;99.90;;;;;;5107105;27;20050;-67
2021/12/21 00:53:51;;;;;;;11.38;7.00;;;-1.30;99.90;;;;;;5109192;27;20207;-67
2021/12/21 00:56:17;;;;;;;16.05;7.78;;;-1.30;99.90;;;;;;5099933;27;20042;-67
2021/12/21 00:58:43;;;;;;;14.50;7.63;;;-1.30;99.90;;;;;;5128114;27;20080;-66
2021/12/21 01:01:09;;;;;;;13.07;7.50;;;-1.30;99.90;;;;;;5121937;27;20540;-67
2021/12/21 01:03:38;;;;;;;17.13;7.25;;;-1.20;99.90;;;;;;5123849;27;20043;-66
2021/12/21 01:08:41;;;;;;;16.73;7.45;;;-1.20;99.90;;;;;;5103193;27;20062;-67
2021/12/21 01:11:14;;;;;;;16.52;7.40;;;-1.30;99.90;;;;;;5125062;27;20039;-67
2021/12/21 01:16:24;;;;;;;16.15;6.72;;;-1.30;99.90;;;;;;5124516;27;20496;-67
2021/12/21 01:21:29;;;;;;;13.10;6.45;;;-1.30;99.90;;;;;;5108170;27;20051;-66
2021/12/21 01:29:10;;;;;;;13.48;6.03;;;-1.30;99.90;;;;;;5124339;27;20078;-67
2021/12/21 01:31:55;;;;;;;10.32;5.60;;;-1.30;99.90;;;;;;5105001;27;20062;-66
2021/12/21 01:35:00;;;;;;;10.95;5.85;;;-1.40;99.90;;;;;;5120956;27;20047;-66
2021/12/21 01:40:56;;;;;;;12.00;5.63;;;-1.40;99.90;;;;;;5055292;27;20042;-67
2021/12/21 01:50:51;;;;;;;13.13;5.93;;;-1.50;99.90;;;;;;5108070;27;20398;-67
2021/12/21 01:53:17;;;;;;;13.07;6.43;;;-1.50;99.90;;;;;;5106816;27;20244;-67
2021/12/21 01:55:43;;;;;;;11.75;6.05;;;-1.50;99.90;;;;;;5107480;28;20126;-67
2021/12/21 01:58:09;;;;;;;12.32;5.80;;;-1.50;99.90;;;;;;5120379;27;20054;-67
2021/12/21 02:00:36;;;;;;;12.20;5.70;;;-1.50;99.90;;;;;;5107258;27;20039;-66
2021/12/21 02:03:02;;;;;;;11.13;5.65;;;-1.50;99.90;;;;;;5120157;27;20036;-67
2021/12/21 02:05:28;;;;;;;10.77;5.50;;;-1.50;99.90;;;;;;5108220;27;20078;-67
2021/12/21 02:07:54;;;;;;;9.88;5.70;;;-1.60;99.90;;;;;;5090908;27;20104;-67
2021/12/21 02:10:20;;;;;;;10.90;5.93;;;-1.70;99.90;;;;;;5104914;27;20087;-66
2021/12/21 02:12:46;;;;;;;12.95;6.15;;;-1.80;99.90;;;;;;5109030;27;20043;-67
2021/12/21 02:15:11;;;;;;;11.73;6.55;;;-1.90;99.90;;;;;;5123350;27;20050;-66
2021/12/21 02:20:41;;;;;;;13.57;6.85;;;-1.90;99.90;;;;;;5108575;27;20464;-66
2021/12/21 02:23:41;;;;;;;14.15;7.57;;;-1.90;99.90;;;;;;5111040;27;20118;-66
2021/12/21 02:26:20;;;;;;;22.10;9.25;;;-1.90;99.90;;;;;;5092126;27;20055;-66
2021/12/21 02:28:58;;;;;;;;;;;-1.90;99.90;;;;;;5104094;28;20352;-67
2021/12/21 02:31:26;;;;;;;15.68;8.48;;;-1.90;99.90;;;;;;5104340;27;20391;-66
2021/12/21 02:33:53;;;;;;;17.27;8.93;;;-0.70;99.90;;;;;;5104072;27;20479;-66
2021/12/21 02:36:18;;;;;;;16.23;8.82;;;-1.90;99.90;;;;;;5103926;28;20047;-66
2021/12/21 02:38:44;;;;;;;14.82;8.32;;;-1.90;99.90;;;;;;5104596;28;20043;-66
2021/12/21 02:41:10;;;;;;;16.73;7.32;;;-1.90;99.90;;;;;;5122892;28;20092;-65
2021/12/21 02:43:38;;;;;;;15.23;8.20;;;-1.90;99.90;;;;;;5102722;28;20071;-66
2021/12/21 02:46:05;;;;;;;15.02;7.78;;;-1.90;99.90;;;;;;5124418;28;20075;-66
2021/12/21 02:48:31;;;;;;;17.15;7.85;;;-2.00;99.90;;;;;;5123096;28;20394;-66
2021/12/21 02:50:57;;;;;;;12.70;8.00;;;-2.00;99.90;;;;;;5117080;28;20039;-65
2021/12/21 02:53:23;;;;;;;19.20;8.50;;;-2.00;99.90;;;;;;5102726;28;20502;-66
2021/12/21 02:55:49;;;;;;;19.83;7.97;;;-2.00;99.90;;;;;;5099259;28;20079;-66
2021/12/21 02:58:14;;;;;;;17.45;8.57;;;-2.10;99.90;;;;;;5105345;28;20089;-66
2021/12/21 03:00:40;;;;;;;16.92;8.65;;;-2.10;99.90;;;;;;5102123;28;20039;-66
2021/12/21 03:03:12;;;;;;;15.50;8.13;;;-2.20;99.90;;;;;;5087944;28;20035;-66
2021/12/21 03:05:38;;;;;;;15.77;8.32;;;-2.20;99.90;;;;;;5104658;28;20039;-66
2021/12/21 03:10:30;;;;;;;17.15;7.57;;;-2.20;99.90;;;;;;5107678;27;20108;-66
2021/12/21 03:15:28;;;;;;;13.73;6.85;;;-2.10;99.90;;;;;;5105269;27;20082;-66
2021/12/21 03:17:55;;;;;;;16.35;7.88;;;-2.10;99.90;;;;;;5129054;27;20404;-66
2021/12/21 03:20:21;;;;;;;11.93;6.85;;;-2.10;99.90;;;;;;5101522;27;20464;-66
2021/12/21 03:22:47;;;;;;;15.18;7.40;;;-2.10;99.90;;;;;;5105778;28;20046;-66
2021/12/21 03:25:14;;;;;;;16.33;6.32;;;-1.30;99.90;;;;;;5107257;27;20051;-66
2021/12/21 03:27:40;;;;;;;13.95;6.82;;;-2.10;99.90;;;;;;5106063;27;20035;-65
2021/12/21 03:30:09;;;;;;;12.90;6.97;;;-2.10;99.90;;;;;;5124786;27;20118;-66
2021/12/21 03:32:34;;;;;;;13.07;6.93;;;-2.10;99.90;;;;;;5126852;27;20120;-66
2021/12/21 03:35:00;;;;;;;12.35;6.78;;;-2.10;99.90;;;;;;5123076;27;20045;-65
2021/12/21 03:37:27;;;;;;;13.63;7.30;;;-2.10;99.90;;;;;;5106583;27;20031;-66
2021/12/21 03:39:54;;;;;;;10.88;6.43;;;-2.10;99.90;;;;;;5126548;27;20088;-66
2021/12/21 03:42:20;;;;;;;14.02;6.57;;;-2.10;99.90;;;;;;5107889;27;20056;-66
2021/12/21 03:44:47;;;;;;;15.05;6.93;;;-2.10;99.90;;;;;;5126415;27;20076;-66
2021/12/21 03:47:15;;;;;;;13.07;6.63;;;-2.10;99.90;;;;;;5110150;27;20058;-66
2021/12/21 03:49:54;;;;;;;15.02;7.68;;;-2.20;99.90;;;;;;5080299;27;20122;-66
2021/12/21 03:52:21;;;;;;;14.95;7.20;;;-2.10;99.90;;;;;;5105631;27;20348;-66
2021/12/21 03:54:50;;;;;;;12.10;6.22;;;-2.10;99.90;;;;;;5108564;27;20042;-66
2021/12/21 03:57:16;;;;;;;12.27;6.13;;;-2.20;99.90;;;;;;5099354;27;20043;-66
2021/12/21 03:59:43;;;;;;;13.27;6.40;;;-2.20;99.90;;;;;;5089409;27;20414;-66
2021/12/21 04:02:11;;;;;;;18.35;6.60;;;-2.20;99.90;;;;;;5127470;27;20091;-66
2021/12/21 04:04:38;;;;;;;11.40;6.28;;;-2.20;99.90;;;;;;5109944;27;20162;-65
2021/12/21 04:07:04;;;;;;;12.05;6.25;;;-2.20;99.90;;;;;;5093467;27;20057;-66
2021/12/21 04:09:30;;;;;;;14.95;6.43;;;-2.20;99.90;;;;;;5126852;27;20053;-66
2021/12/21 04:11:55;;;;;;;13.45;6.05;;;-2.30;99.90;;;;;;5128741;27;20567;-66
2021/12/21 04:14:21;;;;;;;12.38;5.85;;;-2.40;99.90;;;;;;5107262;27;20058;-66
2021/12/21 04:16:48;;;;;;;13.15;6.18;;;-2.40;99.90;;;;;;5108153;27;20047;-66
2021/12/21 04:19:13;;;;;;;12.68;5.80;;;-2.40;99.90;;;;;;5125930;27;20039;-66
2021/12/21 04:21:40;;;;;;;14.93;6.03;;;-2.40;99.90;;;;;;5107033;27;21210;-66
2021/12/21 04:24:06;;;;;;;15.35;6.00;;;-2.50;99.90;;;;;;5124148;27;20039;-66
2021/12/21 04:26:32;;;;;;;14.98;6.82;;;-2.60;99.90;;;;;;5105872;27;20577;-66
2021/12/21 04:28:58;;;;;;;16.17;7.20;;;-2.60;99.90;;;;;;5105871;27;20039;-66
2021/12/21 04:31:24;;;;;;;10.55;6.05;;;-2.60;99.90;;;;;;5105072;27;20101;-66
2021/12/21 04:33:49;;;;;;;10.68;5.72;;;-2.60;99.90;;;;;;5104774;27;20112;-66
2021/12/21 04:36:15;;;;;;;14.77;6.78;;;-2.70;99.90;;;;;;5125191;27;20076;-66
2021/12/21 04:38:46;;;;;;;12.77;6.07;;;-2.70;99.90;;;;;;5086898;27;20050;-66
2021/12/21 04:43:39;;;;;;;14.55;6.50;;;-2.60;99.90;;;;;;5124793;27;20039;-66
2021/12/21 04:46:05;;;;;;;9.32;5.57;;;-2.60;99.90;;;;;;5107083;27;20348;-66
2021/12/21 04:48:31;;;;;;;10.55;6.10;;;-2.60;99.90;;;;;;5106996;27;20035;-65
2021/12/21 04:50:57;;;;;;;14.73;5.50;;;-2.50;99.90;;;;;;5088379;28;20093;-66
2021/12/21 04:53:24;;;;;;;14.30;5.88;;;-2.50;99.90;;;;;;5101292;28;20119;-65
2021/12/21 04:55:50;;;;;;;12.27;5.70;;;-2.50;99.90;;;;;;5102304;27;20088;-66
2021/12/21 04:58:16;;;;;;;11.38;5.85;;;-2.60;99.90;;;;;;5089048;27;20051;-66
2021/12/21 05:00:42;;;;;;;13.48;6.40;;;-2.60;99.90;;;;;;5106438;27;20047;-66
2021/12/21 05:03:09;;;;;;;14.57;6.30;;;-2.70;99.90;;;;;;5108679;27;20031;-66
2021/12/21 05:05:34;;;;;;;13.30;6.00;;;-2.70;99.90;;;;;;5124985;27;20367;-66
2021/12/21 05:10:48;;;;;;;15.15;6.13;;;-2.70;99.90;;;;;;5125441;27;20425;-66
2021/12/21 05:13:18;;;;;;;12.45;6.03;;;-2.70;99.90;;;;;;5105838;27;20467;-66
2021/12/21 05:15:45;;;;;;;11.18;6.45;;;-2.60;99.90;;;;;;5101602;27;20043;-66
2021/12/21 05:18:12;;;;;;;11.27;6.53;;;-2.70;99.90;;;;;;5104994;27;20145;-66
2021/12/21 05:20:39;;;;;;;13.77;6.35;;;-2.80;99.90;;;;;;5102587;27;20152;-66
2021/12/21 05:23:05;;;;;;;15.77;6.60;;;-2.80;99.90;;;;;;5122203;27;20464;-66
2021/12/21 05:25:31;;;;;;;15.48;6.28;;;-2.80;99.90;;;;;;5125537;27;20034;-66
2021/12/21 05:27:57;;;;;;;11.38;6.70;;;-2.80;99.90;;;;;;5100101;27;20363;-66
2021/12/21 05:30:23;;;;;;;14.68;6.70;;;-2.80;99.90;;;;;;5100301;27;20075;-66
2021/12/21 05:32:52;;;;;;;13.82;7.35;;;-2.70;99.90;;;;;;5103801;27;20645;-66
2021/12/21 05:35:19;;;;;;;13.27;6.13;;;-2.70;99.90;;;;;;5100639;27;20595;-66
2021/12/21 05:37:46;;;;;;;9.63;5.88;;;-2.70;99.90;;;;;;5101732;27;20042;-66
2021/12/21 05:40:17;;;;;;;10.57;5.72;;;-2.70;99.90;;;;;;5101095;27;20051;-66
2021/12/21 05:42:45;;;;;;;14.27;6.43;;;-2.80;99.90;;;;;;5121082;27;21261;-66
2021/12/21 05:45:13;;;;;;;10.35;6.50;;;-2.80;99.90;;;;;;5101996;27;20047;-66
2021/12/21 05:47:39;;;;;;;13.23;6.50;;;-2.90;99.90;;;;;;5101296;27;20080;-66
2021/12/21 05:50:10;;;;;;;15.25;7.15;;;-2.90;99.90;;;;;;5120848;27;20427;-66
2021/12/21 05:52:36;;;;;;;12.35;6.53;;;-2.90;99.90;;;;;;5120554;27;20479;-65
2021/12/21 05:55:03;;;;;;;12.35;6.25;;;-2.90;99.90;;;;;;5104324;27;20069;-66
2021/12/21 05:57:29;;;;;;;11.00;5.75;;;-2.80;99.90;;;;;;5102520;27;20593;-66
2021/12/21 05:59:55;;;;;;;15.23;6.05;;;-2.80;99.90;;;;;;5102937;27;20074;-66
2021/12/21 06:02:21;;;;;;;14.05;6.72;;;-2.80;99.90;;;;;;5099165;27;20040;-66
2021/12/21 06:04:47;;;;;;;11.40;6.32;;;-2.70;99.90;;;;;;5102631;27;20039;-66
2021/12/21 06:07:13;;;;;;;16.23;5.80;;;-2.60;99.90;;;;;;5103213;27;20050;-66
2021/12/21 06:09:39;;;;;;;15.25;7.32;;;-2.70;99.90;;;;;;5098104;27;20039;-66
2021/12/21 06:25:58;;;;;;;12.27;6.20;;;-2.70;99.90;;;;;;5105519;27;20043;-66
2021/12/21 06:28:24;;;;;;;13.23;6.07;;;-2.80;99.90;;;;;;5103968;28;20039;-66
2021/12/21 06:30:51;;;;;;;12.20;6.32;;;-2.80;99.90;;;;;;5104328;28;20139;-66
2021/12/21 06:33:17;;;;;;;10.57;6.25;;;-2.70;99.90;;;;;;5104935;27;20126;-66
2021/12/21 06:35:43;;;;;;;12.25;6.45;;;-2.70;99.90;;;;;;5108115;27;20043;-66
2021/12/21 06:38:10;;;;;;;16.88;6.70;;;-2.70;99.90;;;;;;5103430;28;20047;-66
2021/12/21 06:40:36;;;;;;;16.23;7.03;;;-2.80;99.90;;;;;;5103333;28;20043;-66
2021/12/21 06:43:03;;;;;;;12.77;7.50;;;-2.90;99.90;;;;;;5084375;28;20082;-66
2021/12/21 06:45:59;;;;;;;13.38;7.05;;;-2.90;99.90;;;;;;5102978;28;20036;-67
2021/12/21 06:53:34;;;;;;;11.55;6.38;;;-2.80;99.90;;;;;;5107376;28;20046;-66
2021/12/21 06:55:59;;;;;;;11.23;6.35;;;-2.80;99.90;;;;;;5108348;28;20054;-66
2021/12/21 06:58:25;;;;;;;11.93;6.57;;;-2.90;99.90;;;;;;5087499;28;20043;-66
2021/12/21 07:00:52;;;;;;;13.63;6.95;;;-3.00;99.90;;;;;;5103550;28;20555;-66
2021/12/21 07:03:19;;;;;;;18.48;7.55;;;-3.00;99.90;;;;;;5104785;28;20040;-66
2021/12/21 07:05:46;;;;;;;11.25;6.72;;;-3.10;99.90;;;;;;5107243;28;20119;-66
2021/12/21 07:08:16;;;;;;;16.45;8.45;;;-3.00;99.90;;;;;;5107516;28;20043;-66
2021/12/21 07:10:54;;;;;;;20.30;9.90;;;-3.00;99.90;;;;;;5122465;28;20043;-67
2021/12/21 07:18:50;;;;;;;13.35;7.15;;;-2.90;99.90;;;;;;5123285;27;20047;-66
2021/12/21 07:21:16;;;;;;;12.50;6.90;;;-2.90;99.90;;;;;;5120238;28;20060;-66
2021/12/21 07:23:42;;;;;;;17.33;7.40;;;-2.90;99.90;;;;;;5107048;28;20031;-67
2021/12/21 07:26:08;;;;;;;15.95;8.40;;;-2.10;99.90;;;;;;5088822;28;20035;-68
2021/12/21 07:28:34;;;;;;;14.27;8.05;;;-2.90;99.90;;;;;;5105017;28;20130;-68
2021/12/21 07:30:59;;;;;;;19.77;8.32;;;-2.90;99.90;;;;;;5106439;28;20043;-68
2021/12/21 07:33:25;;;;;;;13.20;8.75;;;-2.80;99.90;;;;;;5088829;28;20046;-68
2021/12/21 07:35:51;;;;;;;12.95;7.72;;;-2.80;99.90;;;;;;5089167;27;20103;-68
2021/12/21 07:38:17;;;;;;;12.32;7.47;;;-2.90;99.90;;;;;;5123397;28;20067;-68
2021/12/21 07:40:43;;;;;;;14.88;7.13;;;-2.80;99.90;;;;;;5105702;28;20059;-68
2021/12/21 07:43:09;;;;;;;15.38;6.97;;;-1.40;99.90;;;;;;5122406;28;20092;-68
2021/12/21 07:45:35;;;;;;;15.20;7.18;;;-2.80;99.90;;;;;;5107132;28;20497;-68
2021/12/21 07:48:01;;;;;;;12.70;7.30;;;-2.80;99.90;;;;;;5097815;28;20164;-68
2021/12/21 07:50:27;;;;;;;11.90;7.00;;;-2.90;99.90;;;;;;5117940;28;20465;-67
2021/12/21 07:52:55;;;;;;;16.23;6.97;;;-2.80;99.90;;;;;;5104101;28;20410;-68
2021/12/21 07:55:22;;;;;;;15.02;8.05;;;-2.80;99.90;;;;;;5105230;27;20119;-68
2021/12/21 07:57:48;;;;;;;14.70;7.00;;;-2.80;99.90;;;;;;5130344;27;20043;-68
2021/12/21 08:00:14;;;;;;;11.00;6.72;;;-2.70;99.90;;;;;;5110648;27;20062;-68
2021/12/21 08:02:40;;;;;;;13.68;7.28;;;-2.70;99.90;;;;;;5112067;27;20037;-68
2021/12/21 08:05:08;;;;;;;17.23;7.20;;;-2.80;99.90;;;;;;5112764;27;20473;-67
2021/12/21 08:07:43;;;;;;;15.95;7.38;;;-2.70;99.90;;;;;;5122630;27;20035;-68
2021/12/21 08:10:20;;;;;;;14.43;7.70;;;-2.70;99.90;;;;;;5122131;27;20043;-68
2021/12/21 08:12:46;;;;;;;17.25;7.32;;;-2.70;99.90;;;;;;5129521;27;20043;-68
2021/12/21 08:15:12;;;;;;;18.25;7.72;;;-2.70;99.90;;;;;;5121155;27;20035;-68
2021/12/21 08:17:37;;;;;;;15.88;6.90;;;-2.70;99.90;;;;;;5110833;27;20088;-68
2021/12/21 08:20:04;;;;;;;14.57;7.38;;;-2.80;99.90;;;;;;5109623;27;20054;-68
2021/12/21 08:22:30;;;;;;;11.85;7.28;;;-2.80;99.90;;;;;;5106210;27;20611;-68
2021/12/21 08:24:55;;;;;;;15.68;7.65;;;-2.80;99.90;;;;;;5100447;27;20067;-67
2021/12/21 08:27:21;;;;;;;13.55;6.35;;;-2.80;99.90;;;;;;5100745;27;20032;-67
2021/12/21 08:29:47;;;;;;;16.40;7.40;;;-2.90;99.90;;;;;;5100535;27;20089;-68
2021/12/21 08:32:13;;;;;;;15.25;7.25;;;-2.90;99.90;;;;;;5091955;27;20059;-68
2021/12/21 08:34:39;;;;;;;15.90;7.95;;;-2.90;99.90;;;;;;5102684;27;20040;-68
2021/12/21 08:37:05;;;;;;;16.50;7.47;;;-2.90;99.90;;;;;;5086340;27;20051;-68
2021/12/21 08:39:38;;;;;;;16.80;7.78;;;-2.90;99.90;;;;;;5108703;27;20043;-67
2021/12/21 08:42:11;;;;;;;17.23;7.95;;;-2.90;99.90;;;;;;5105472;27;20487;-68
2021/12/21 08:44:36;;;;;;;13.30;7.45;;;-2.90;99.90;;;;;;5108901;27;20035;-68
2021/12/21 08:47:03;;;;;;;18.48;8.48;;;-2.80;99.90;;;;;;5103568;27;20475;-68
2021/12/21 08:49:29;;;;;;;19.75;8.88;;;-2.70;99.90;;;;;;5096666;27;20066;-68
2021/12/21 08:51:56;;;;;;;16.05;8.02;;;-1.60;99.90;;;;;;5102288;27;20039;-68
2021/12/21 08:54:22;;;;;;;18.13;9.55;;;-2.60;99.90;;;;;;5102389;27;20089;-68
2021/12/21 08:56:48;;;;;;;16.13;9.20;;;-2.60;99.90;;;;;;5099632;27;20047;-68
2021/12/21 08:59:15;;;;;;;16.65;8.70;;;-2.50;99.90;;;;;;5106554;27;20078;-68
2021/12/21 09:01:43;;;;;;;17.85;8.70;;;-2.40;99.90;;;;;;5101431;27;20166;-68
2021/12/21 09:04:08;;;;;;;13.27;8.70;;;-2.40;99.90;;;;;;5122957;27;20043;-68
2021/12/21 09:06:34;;;;;;;18.27;9.18;;;-2.30;99.90;;;;;;5104634;27;20641;-68
2021/12/21 09:09:00;;;;;;;22.30;10.48;;;-2.20;99.90;;;;;;5086519;27;20524;-68
2021/12/21 09:11:26;;;;;;;16.50;9.20;;;-2.20;99.90;;;;;;5086352;27;20172;-67
2021/12/21 09:13:51;;;;;;;23.95;10.10;;;-2.10;99.90;;;;;;5086048;27;20819;-68
2021/12/21 09:16:17;;;;;;;25.50;12.10;;;-1.00;99.90;;;;;;5106866;27;20430;-67
2021/12/21 09:18:44;;;;;;;21.77;12.15;;;-2.00;99.90;;;;;;5103615;27;20075;-68
2021/12/21 09:21:10;;;;;;;19.08;11.50;;;-1.90;99.90;;;;;;5122785;27;20055;-68
2021/12/21 09:23:36;;;;;;;22.20;11.90;;;-1.90;99.90;;;;;;5124771;27;20518;-68
2021/12/21 09:26:02;;;;;;;23.20;12.80;;;-1.80;99.90;;;;;;5104750;27;20070;-67
2021/12/21 09:28:28;;;;;;;22.90;12.80;;;-1.80;99.90;;;;;;5100309;27;20054;-68
2021/12/21 09:30:53;;;;;;;26.58;14.43;;;-1.70;99.90;;;;;;5122267;27;20039;-68
2021/12/21 09:33:19;;;;;;;21.00;14.25;;;-1.60;99.90;;;;;;5102491;27;20129;-68
2021/12/21 09:35:45;;;;;;;23.25;14.60;;;-1.40;99.90;;;;;;5103479;27;20506;-68
2021/12/21 09:38:11;;;;;;;24.30;14.38;;;-1.50;99.90;;;;;;5099749;27;20075;-68
2021/12/21 09:40:40;;;;;;;26.60;15.25;;;-1.40;99.90;;;;;;5103317;27;20102;-68
2021/12/21 09:43:10;;;;;;;25.10;14.65;;;-1.40;99.90;;;;;;5103926;27;21529;-68
2021/12/21 09:45:37;;;;;;;28.05;16.42;;;-1.30;99.90;;;;;;5094011;27;20075;-68
2021/12/21 09:48:04;;;;;;;28.10;16.17;;;-1.30;99.90;;;;;;5098544;27;20043;-68
2021/12/21 09:50:30;;;;;;;30.08;16.08;;;-1.20;99.90;;;;;;5102346;27;20463;-68
2021/12/21 09:52:56;;;;;;;28.67;17.05;;;-1.10;99.90;;;;;;5103176;27;20064;-65
2021/12/21 09:55:22;;;;;;;28.50;17.33;;;-0.90;99.90;;;;;;5100519;27;20055;-66
2021/12/21 09:57:49;;;;;;;30.05;16.70;;;-1.00;99.90;;;;;;5100679;27;20047;-66
2021/12/21 10:00:28;;;;;;;36.47;19.00;;;-1.00;99.90;;;;;;5121242;27;20047;-65
2021/12/21 10:03:03;;;;;;;29.40;18.00;;;-0.90;99.90;;;;;;5099613;27;20127;-65
2021/12/21 10:05:31;;;;;;;30.65;18.00;;;-0.90;99.90;;;;;;5100071;27;20059;-66
2021/12/21 10:08:13;;;;;;;29.33;17.80;;;-0.80;99.90;;;;;;5103012;27;20135;-65
2021/12/21 10:10:51;;;;;;;35.05;18.55;;;-0.70;99.90;;;;;;5102559;28;20089;-66
2021/12/21 10:13:19;;;;;;;30.67;18.33;;;-0.70;99.90;;;;;;5100071;27;20043;-67
2021/12/21 10:15:52;;;;;;;30.02;18.70;;;-0.60;99.90;;;;;;5113914;27;20565;-68
2021/12/21 10:18:23;;;;;;;31.35;18.77;;;-0.50;99.90;;;;;;5102072;27;20039;-68
2021/12/21 10:20:49;;;;;;;28.92;18.25;;;-0.50;99.90;;;;;;5121788;27;20051;-68
2021/12/21 10:23:20;;;;;;;28.60;19.02;;;-0.50;99.90;;;;;;5102300;27;20384;-68
2021/12/21 10:25:56;;;;;;;34.95;21.00;;;-0.40;99.90;;;;;;5102216;27;20068;-68
2021/12/21 10:28:25;;;;;;;30.30;20.05;;;0.20;99.90;;;;;;5107641;27;20039;-68
2021/12/21 10:30:53;;;;;;;32.10;20.73;;;-0.30;99.90;;;;;;5100748;27;20126;-68
2021/12/21 10:33:21;;;;;;;37.55;22.13;;;-0.20;99.90;;;;;;5100871;27;20055;-68
2021/12/21 10:35:46;;;;;;;32.20;21.10;;;-0.20;99.90;;;;;;5107173;27;20108;-68
2021/12/21 10:38:50;;;;;;;37.28;20.63;;;-0.10;99.90;;;;;;5089479;28;20051;-67
2021/12/21 10:41:19;;;;;;;35.17;20.48;;;-0.10;99.90;;;;;;5094489;28;20134;-67
2021/12/21 10:44:06;;;;;;;31.38;21.38;;;0.00;99.90;;;;;;5105641;28;20560;-67
2021/12/21 10:46:36;;;;;;;39.92;21.60;;;0.00;99.90;;;;;;5103662;28;20388;-68
2021/12/21 10:49:09;;;;;;;32.55;20.65;;;0.10;99.90;;;;;;5102775;28;20108;-67
2021/12/21 10:51:37;;;;;;;33.95;20.17;;;0.10;99.90;;;;;;5103496;28;20043;-67
2021/12/21 10:54:02;;;;;;;35.75;21.55;;;0.20;99.90;;;;;;5106772;28;20066;-67
2021/12/21 10:56:28;;;;;;;33.38;20.95;;;0.20;99.90;;;;;;5106170;28;20043;-67
2021/12/21 10:58:54;;;;;;;36.67;20.42;;;0.20;99.90;;;;;;5107179;28;20057;-66
2021/12/21 11:01:27;;;;;;;37.30;20.45;;;0.30;99.90;;;;;;5085334;28;20080;-67
2021/12/21 11:03:55;;;;;;;34.10;21.33;;;0.30;99.90;;;;;;5088116;28;20041;-68
2021/12/21 11:06:29;;;;;;;34.50;20.48;;;0.30;99.90;;;;;;5103453;28;20035;-68
2021/12/21 11:08:57;;;;;;;30.35;19.63;;;0.40;99.90;;;;;;5106255;28;20471;-68
2021/12/21 11:11:32;;;;;;;32.78;19.65;;;0.40;99.90;;;;;;5086163;28;20043;-68
2021/12/21 11:14:14;;;;;;;37.73;18.93;;;0.50;99.90;;;;;;5123796;27;20055;-68
2021/12/21 11:16:46;;;;;;;36.58;20.98;;;0.50;99.90;;;;;;5104471;28;20114;-67
2021/12/21 11:19:14;;;;;;;34.08;20.40;;;0.60;99.90;;;;;;5089337;28;20067;-68
2021/12/21 11:21:41;;;;;;;31.63;19.90;;;0.70;99.90;;;;;;5104664;28;20497;-68
2021/12/21 11:24:10;;;;;;;31.25;18.67;;;0.60;99.90;;;;;;5088355;28;20058;-68
2021/12/21 11:26:37;;;;;;;29.73;18.95;;;0.70;99.90;;;;;;5107286;28;20080;-68
2021/12/21 11:29:09;;;;;;;34.10;18.80;;;0.70;99.90;;;;;;5105265;27;20055;-68
2021/12/21 11:31:43;;;;;;;34.00;17.63;;;0.70;99.90;;;;;;5109066;27;20054;-68
2021/12/21 11:34:14;;;;;;;29.55;17.52;;;0.80;99.90;;;;;;5127910;27;20050;-68
2021/12/21 11:39:31;;;;;;;30.52;16.15;;;0.80;99.90;;;;;;5094604;27;20127;-68
2021/12/21 11:41:58;;;;;;;30.52;16.08;;;0.90;99.90;;;;;;5107577;27;20499;-68
2021/12/21 11:44:30;;;;;;;24.75;15.93;;;0.90;99.90;;;;;;5110475;27;20501;-68
2021/12/21 11:47:01;;;;;;;28.42;15.63;;;0.90;99.90;;;;;;5092116;27;20138;-68
2021/12/21 11:49:50;;;;;;;27.98;15.38;;;0.90;99.90;;;;;;5109323;27;20043;-68
2021/12/21 11:52:22;;;;;;;26.98;15.00;;;1.00;99.90;;;;;;5108229;27;20066;-69
2021/12/21 11:54:53;;;;;;;29.05;16.30;;;1.00;99.90;;;;;;5105677;28;20034;-69
2021/12/21 11:57:32;;;;;;;28.77;16.13;;;1.00;99.90;;;;;;5104943;27;20480;-68
2021/12/21 12:00:15;;;;;;;28.48;15.35;;;1.10;99.90;;;;;;5101698;27;20066;-70
2021/12/21 12:02:43;;;;;;;26.15;14.95;;;1.10;99.90;;;;;;5120737;27;20049;-69
2021/12/21 12:05:17;;;;;;;27.67;15.60;;;1.10;99.90;;;;;;5103505;27;20131;-69
2021/12/21 12:07:43;;;;;;;31.23;16.40;;;1.20;99.90;;;;;;5087392;27;20095;-69
2021/12/21 12:10:12;;;;;;;28.05;16.30;;;1.20;99.90;;;;;;5092684;27;20063;-69
2021/12/21 12:12:38;;;;;;;26.88;16.38;;;1.20;99.90;;;;;;5106424;27;20105;-69
2021/12/21 12:15:07;;;;;;;27.60;18.15;;;1.30;99.90;;;;;;5106061;27;20079;-69
2021/12/21 12:17:43;;;;;;;30.42;16.55;;;1.30;99.90;;;;;;5105841;27;20066;-69
2021/12/21 12:20:10;;;;;;;27.10;15.77;;;1.40;99.90;;;;;;5105835;27;20035;-69
2021/12/21 12:22:37;;;;;;;20.83;13.57;;;1.40;99.90;;;;;;5102627;27;20047;-69
2021/12/21 12:25:06;;;;;;;22.25;12.98;;;1.40;99.90;;;;;;5110359;27;20142;-69
2021/12/21 12:27:32;;;;;;;28.20;13.70;;;1.50;99.90;;;;;;5089918;27;20453;-69
2021/12/21 12:30:09;;;;;;;26.90;15.10;;;1.60;99.90;;;;;;5107973;27;20370;-69
2021/12/21 12:32:43;;;;;;;21.98;12.93;;;1.60;99.90;;;;;;5105599;27;20047;-69
2021/12/21 12:35:18;;;;;;;25.50;13.23;;;1.60;99.90;;;;;;5106214;27;20043;-69
2021/12/21 12:38:01;;;;;;;25.60;14.48;;;1.60;99.90;;;;;;5108093;27;20043;-68
2021/12/21 12:40:37;;;;;;;26.10;14.68;;;1.70;99.90;;;;;;5124953;27;20134;-68
2021/12/21 12:43:22;;;;;;;23.67;14.68;;;1.70;99.90;;;;;;5106144;27;20139;-71
2021/12/21 12:46:03;;;;;;;29.48;16.70;;;1.70;99.90;;;;;;5106757;27;20050;-69
2021/12/21 12:48:48;;;;;;;22.05;14.52;;;1.70;99.90;;;;;;5100741;27;20050;-68
2021/12/21 12:51:28;;;;;;;25.20;16.60;;;1.80;99.90;;;;;;5108013;27;20039;-68
2021/12/21 12:53:55;;;;;;;28.50;15.85;;;1.90;99.90;;;;;;5106356;27;20168;-68
2021/12/21 12:56:21;;;;;;;26.08;17.05;;;2.00;99.90;;;;;;5125268;27;20369;-68
2021/12/21 12:58:54;;;;;;;28.20;16.90;;;2.10;99.90;;;;;;5101716;27;20104;-68
2021/12/21 13:01:24;;;;;;;24.30;15.73;;;1.90;99.90;;;;;;5105442;27;20035;-68
2021/12/21 13:03:53;;;;;;;27.70;16.60;;;1.90;99.90;;;;;;5103805;27;20395;-69
2021/12/21 13:06:24;;;;;;;29.33;16.13;;;1.90;99.90;;;;;;5117245;27;20051;-68
2021/12/21 13:08:51;;;;;;;27.27;16.08;;;2.00;99.90;;;;;;5118180;27;20494;-68
2021/12/21 13:11:23;;;;;;;26.65;18.10;;;2.00;99.90;;;;;;5103732;27;20054;-68
2021/12/21 13:13:49;;;;;;;25.58;16.85;;;2.00;99.90;;;;;;5106064;27;20126;-68
2021/12/21 13:16:18;;;;;;;30.33;16.77;;;2.00;99.90;;;;;;5105645;27;20042;-68
2021/12/21 13:18:51;;;;;;;29.98;16.80;;;2.00;99.90;;;;;;5103398;27;20051;-67
2021/12/21 13:21:24;;;;;;;26.85;17.25;;;2.10;99.90;;;;;;5107475;27;20073;-67
2021/12/21 13:23:58;;;;;;;25.75;16.20;;;2.10;99.90;;;;;;5089474;27;20059;-67
2021/12/21 13:26:48;;;;;;;26.10;15.82;;;2.30;99.90;;;;;;5106085;27;20483;-68
2021/12/21 13:29:18;;;;;;;29.63;16.90;;;2.10;99.90;;;;;;5119339;27;20449;-68
2021/12/21 13:31:48;;;;;;;29.75;16.63;;;2.10;99.90;;;;;;5088827;27;20039;-67
2021/12/21 13:34:15;;;;;;;25.60;15.55;;;2.10;99.90;;;;;;5097772;27;20035;-67
2021/12/21 13:36:47;;;;;;;28.70;15.57;;;2.10;99.90;;;;;;5107586;27;20383;-67
2021/12/21 13:39:18;;;;;;;23.67;15.35;;;2.10;99.90;;;;;;5105513;27;20046;-67
2021/12/21 13:41:49;;;;;;;27.88;15.10;;;2.10;99.90;;;;;;5107504;27;20027;-62
2021/12/21 13:44:36;;;;;;;27.00;15.73;;;2.10;99.90;;;;;;5122515;27;20489;-67
2021/12/21 13:47:43;;;;;;;26.77;15.68;;;2.20;99.90;;;;;;5101079;27;20479;-67
2021/12/21 13:50:10;;;;;;;22.95;15.65;;;2.10;99.90;;;;;;5120923;27;20513;-66
2021/12/21 13:52:39;;;;;;;25.67;16.15;;;2.20;99.90;;;;;;5105878;27;20043;-67